Item Display Status Serial CT Sensor

Mooring Depth: 1 m

 

Deployed Sensor

  • Serial Number: 10442
  • NDBC Property Number: 36460
  • Start Date: 6/14/2023 (11:21:25 Z)
  • End Date: Currently Active
Water Temperature [°C]     6 entries per hour
Showing data from 1/13/2024 (16:10:00 Z) to 1/12/2024 (00:00:01 Z)
Previous Next [ Day | 3-Days | 7-Days ]
First Last
Prev [ Day | 3-Days | 7-Days ] Next
First Last

Start Time:     :
End Time:     :     
Time (in GMT) :00 :50 :40 :30 :20 :10
Previous Next [ Day | 3-Days | 7-Days ]
First Last
Prev [ Day | 3-Days | 7-Days ] Next
First Last


123 => good data
MM => data is determined as missing
-- => data not received/configured
Back to Top Back to Top
1/13/2024 17:00 to 16:10 -- -- -- -- -- 28.514
1/13/2024 16:00 to 15:10 28.495 28.496 28.505 28.501 28.478 28.478
1/13/2024 15:00 to 14:10 28.467 28.460 28.454 28.444 28.473 28.462
1/13/2024 14:00 to 13:10 28.453 28.453 28.449 28.446 28.449 28.423
1/13/2024 13:00 to 12:10 28.440 28.434 28.438 28.424 28.430 28.422
1/13/2024 12:00 to 11:10 28.408 28.410 28.408 28.414 28.396 28.401
1/13/2024 11:00 to 10:10 28.400 28.387 28.399 28.399 28.394 28.394
1/13/2024 10:00 to 9:10 28.389 28.364 28.368 28.374 28.369 28.368
1/13/2024 09:00 to 8:10 28.367 28.363 28.367 28.371 28.357 28.366
1/13/2024 08:00 to 7:10 28.369 28.349 28.362 28.356 28.356 28.354
1/13/2024 07:00 to 6:10 28.360 28.356 28.368 28.359 28.362 28.360
1/13/2024 06:00 to 5:10 28.364 28.364 28.362 28.357 28.354 28.367
1/13/2024 05:00 to 4:10 28.362 28.348 28.347 28.361 28.356 28.360
1/13/2024 04:00 to 3:10 28.359 28.357 28.360 28.364 28.361 28.360
1/13/2024 03:00 to 2:10 28.357 28.349 28.361 28.352 28.359 28.357
1/13/2024 02:00 to 1:10 28.361 28.361 28.359 28.359 28.358 28.357
1/13/2024 01:00 to 0:10 28.352 28.361 28.367 28.367 28.359 28.356
1/13/2024 00:00 to 23:10 28.352 28.351 28.352 28.350 28.347 28.347
1/12/2024 23:00 to 22:10 28.346 28.345 28.344 28.345 28.344 28.342
1/12/2024 22:00 to 21:10 28.341 28.341 28.339 28.336 28.340 28.338
1/12/2024 21:00 to 20:10 28.335 28.330 28.336 28.335 28.325 28.341
1/12/2024 20:00 to 19:10 28.338 28.337 28.336 28.336 28.337 28.332
1/12/2024 19:00 to 18:10 28.341 28.340 28.339 28.342 28.353 28.355
1/12/2024 18:00 to 17:10 28.353 28.361 28.359 28.357 28.358 28.357
1/12/2024 17:00 to 16:10 28.349 28.361 28.358 28.366 28.360 28.346
1/12/2024 16:00 to 15:10 28.343 28.341 28.360 28.356 28.360 28.359
1/12/2024 15:00 to 14:10 28.360 28.348 28.367 28.376 28.379 28.365
1/12/2024 14:00 to 13:10 28.372 28.374 28.384 28.376 28.389 28.376
1/12/2024 13:00 to 12:10 28.381 28.370 28.386 28.381 28.380 28.389
1/12/2024 12:00 to 11:10 28.391 28.393 28.385 28.391 28.389 28.394
1/12/2024 11:00 to 10:10 28.386 28.388 28.386 28.384 28.400 28.385
1/12/2024 10:00 to 9:10 28.401 28.390 28.398 28.406 28.398 28.393
1/12/2024 09:00 to 8:10 28.395 28.397 28.398 28.405 28.401 28.401
1/12/2024 08:00 to 7:10 28.404 28.414 28.406 28.409 28.411 28.408
1/12/2024 07:00 to 6:10 28.408 28.418 28.417 28.409 28.404 28.423
1/12/2024 06:00 to 5:10 28.412 28.425 28.415 28.419 28.416 28.428
1/12/2024 05:00 to 4:10 28.426 28.427 28.417 28.434 28.426 28.429
1/12/2024 04:00 to 3:10 28.433 28.440 28.439 28.439 28.433 28.442
1/12/2024 03:00 to 2:10 28.442 28.446 28.437 28.449 28.441 28.443
1/12/2024 02:00 to 1:10 28.440 28.445 28.445 28.438 28.446 28.437
1/12/2024 01:00 to 0:10 28.437 28.431 28.435 28.431 28.424 28.431

 

 

 

Conductivity [S/m]     6 entries per hour
Showing data from 9/23/2023 (04:10:00 Z) to 9/22/2023 (00:00:01 Z)
Previous Next [ Day | 3-Days | 7-Days ]
First Last
Prev [ Day | 3-Days | 7-Days ] Next
First Last

Start Time:     :
End Time:     :     
Time (in GMT) :00 :50 :40 :30 :20 :10
Previous Next [ Day | 3-Days | 7-Days ]
First Last
Prev [ Day | 3-Days | 7-Days ] Next
First Last


123 => good data
MM => data is determined as missing
-- => data not received/configured
Back to Top Back to Top
9/23/2023 05:00 to 4:10 -- -- -- -- -- 5.73722
9/23/2023 04:00 to 3:10 5.73963 5.74094 5.74138 5.74003 5.73885 5.74060
9/23/2023 03:00 to 2:10 5.73960 5.74435 5.74449 5.74629 5.75151 5.74838
9/23/2023 02:00 to 1:10 5.74949 5.74835 5.74869 5.75082 5.74830 5.74606
9/23/2023 01:00 to 0:10 5.74592 5.74162 5.74583 5.74554 5.74314 5.74153
9/23/2023 00:00 to 23:10 5.73533 5.73739 5.73482 5.73444 5.73336 5.73185
9/22/2023 23:00 to 22:10 5.73185 5.72816 5.72601 5.72641 5.72263 5.72455
9/22/2023 22:00 to 21:10 5.72343 5.72152 5.72144 5.72148 5.71999 5.71934
9/22/2023 21:00 to 20:10 5.71915 5.71889 5.71786 5.71748 5.71663 5.71617
9/22/2023 20:00 to 19:10 5.71534 5.71535 5.71472 5.71488 5.71438 5.71358
9/22/2023 19:00 to 18:10 5.71348 5.71348 5.71286 5.71271 5.71235 5.71250
9/22/2023 18:00 to 17:10 5.71369 5.71241 5.71345 5.71353 5.71236 5.71353
9/22/2023 17:00 to 16:10 5.71344 5.71340 5.71317 5.71312 5.71332 5.71293
9/22/2023 16:00 to 15:10 5.71146 5.71201 5.71366 5.71214 5.71315 5.71280
9/22/2023 15:00 to 14:10 5.71318 5.71343 5.71393 5.71390 5.71387 5.71695
9/22/2023 14:00 to 13:10 5.71596 5.71644 5.71681 5.71606 5.71630 5.71583
9/22/2023 13:00 to 12:10 5.71608 5.71686 5.71704 5.71619 5.71581 5.71585
9/22/2023 12:00 to 11:10 5.71599 5.71413 5.71539 5.71595 5.71544 5.71663
9/22/2023 11:00 to 10:10 5.71646 5.71777 5.71813 5.71816 5.71762 5.71893
9/22/2023 10:00 to 9:10 5.71894 5.71858 5.71916 5.71794 5.71787 5.71718
9/22/2023 09:00 to 8:10 5.71850 5.71901 5.71868 5.71782 5.71880 5.71911
9/22/2023 08:00 to 7:10 5.71762 5.71898 5.71940 5.71890 5.71807 5.71817
9/22/2023 07:00 to 6:10 5.71676 5.71609 5.71625 5.71720 5.71182 5.71386
9/22/2023 06:00 to 5:10 5.71175 5.72161 5.72151 5.72188 5.72089 5.72219
9/22/2023 05:00 to 4:10 5.72275 5.72228 5.72176 5.72270 5.72270 5.72315
9/22/2023 04:00 to 3:10 5.72239 5.72231 5.72311 5.72328 5.72274 5.72353
9/22/2023 03:00 to 2:10 5.72353 5.72128 5.72402 5.72476 5.72460 5.72571
9/22/2023 02:00 to 1:10 5.72535 5.72551 5.72481 5.72802 5.72922 5.73042
9/22/2023 01:00 to 0:10 5.72940 5.72915 5.72976 5.72976 5.72717 5.72768

 

 

 

Salinity [psu]     6 entries per hour
Showing data from 9/23/2023 (04:20:00 Z) to 9/22/2023 (00:00:01 Z)
Previous Next [ Day | 3-Days | 7-Days ]
First Last
Prev [ Day | 3-Days | 7-Days ] Next
First Last

Start Time:     :
End Time:     :     
Time (in GMT) :00 :50 :40 :30 :20 :10
Previous Next [ Day | 3-Days | 7-Days ]
First Last
Prev [ Day | 3-Days | 7-Days ] Next
First Last


123 => good data
MM => data is determined as missing
-- => data not received/configured
Back to Top Back to Top
9/23/2023 05:00 to 4:10 -- -- -- -- MM 34.44
9/23/2023 04:00 to 3:10 34.45 34.45 34.45 34.46 34.45 34.46
9/23/2023 03:00 to 2:10 34.47 34.46 34.47 34.47 34.47 34.47
9/23/2023 02:00 to 1:10 34.47 34.48 34.47 34.48 34.47 34.48
9/23/2023 01:00 to 0:10 34.48 34.48 34.48 34.47 34.48 34.48
9/23/2023 00:00 to 23:10 34.48 34.50 34.48 34.48 34.48 34.48
9/22/2023 23:00 to 22:10 34.49 34.48 34.48 34.47 34.48 34.48
9/22/2023 22:00 to 21:10 34.48 34.48 34.48 34.48 34.48 34.48
9/22/2023 21:00 to 20:10 34.48 34.48 34.48 34.47 34.47 34.47
9/22/2023 20:00 to 19:10 34.47 34.47 34.47 34.47 34.47 34.47
9/22/2023 19:00 to 18:10 34.47 34.47 34.47 34.47 34.47 34.47
9/22/2023 18:00 to 17:10 34.47 34.47 34.46 34.47 34.47 34.47
9/22/2023 17:00 to 16:10 34.47 34.47 34.46 34.46 34.46 34.46
9/22/2023 16:00 to 15:10 34.46 34.46 34.46 34.46 34.46 34.46
9/22/2023 15:00 to 14:10 34.46 34.46 34.47 34.47 34.46 34.49
9/22/2023 14:00 to 13:10 34.49 34.48 34.49 34.48 34.49 34.49
9/22/2023 13:00 to 12:10 34.48 34.48 34.48 34.48 34.48 34.48
9/22/2023 12:00 to 11:10 34.48 34.48 34.48 34.48 34.48 34.48
9/22/2023 11:00 to 10:10 34.48 34.49 34.49 34.49 34.49 34.49
9/22/2023 10:00 to 9:10 34.49 34.49 34.49 34.49 34.49 34.49
9/22/2023 09:00 to 8:10 34.49 34.49 34.49 34.49 34.49 34.49
9/22/2023 08:00 to 7:10 34.49 34.49 34.49 34.49 34.48 34.48
9/22/2023 07:00 to 6:10 34.48 34.47 34.48 34.48 34.46 34.46
9/22/2023 06:00 to 5:10 34.44 34.49 34.50 34.50 34.50 34.50
9/22/2023 05:00 to 4:10 34.50 34.50 34.50 34.49 34.49 34.49
9/22/2023 04:00 to 3:10 34.50 34.49 34.49 34.49 34.49 34.49
9/22/2023 03:00 to 2:10 34.49 34.48 34.49 34.49 34.49 34.49
9/22/2023 02:00 to 1:10 34.48 34.48 34.47 34.49 34.50 34.50
9/22/2023 01:00 to 0:10 34.50 34.50 34.50 34.50 34.50 34.50